Time;durP1;ratioP1;P1;durP2;ratioP2;P2;SDS_P1;SDS_P2;PMS_P1;PMS_P2;Temp;Humidity;BMP_temperature;BMP_pressure;BME280_temperature;BME280_humidity;BME280_pressure;Samples;Min_cycle;Max_cycle;Signal;HPM_P1;HPM_P2
2023/12/05 00:54:45;;;;;;;8.77;1.95;;;26.60;66.60;;;;;;6149473;23;20137;-67
2023/12/05 00:57:13;;;;;;;7.30;2.28;;;26.50;66.40;;;;;;6154227;23;20037;-67
2023/12/05 00:59:40;;;;;;;7.30;2.38;;;26.60;66.50;;;;;;6154708;23;20006;-69
2023/12/05 01:02:09;;;;;;;11.43;2.65;;;26.60;66.30;;;;;;6154424;23;20025;-69
2023/12/05 01:04:37;;;;;;;7.95;2.58;;;26.60;66.10;;;;;;6154353;23;20013;-69
2023/12/05 01:07:04;;;;;;;5.25;2.13;;;26.70;65.50;;;;;;6128827;23;19998;-68
2023/12/05 01:09:31;;;;;;;5.72;2.30;;;26.70;66.20;;;;;;6154504;23;20009;-67
2023/12/05 01:11:59;;;;;;;10.25;2.58;;;26.70;66.10;;;;;;6104603;23;20337;-67
2023/12/05 01:14:26;;;;;;;8.60;2.55;;;26.70;67.10;;;;;;6154051;23;20021;-67
2023/12/05 01:16:53;;;;;;;12.77;2.83;;;26.70;67.00;;;;;;6154450;23;20025;-67
2023/12/05 01:19:21;;;;;;;6.32;1.95;;;26.70;67.70;;;;;;6128523;23;20012;-67
2023/12/05 01:21:48;;;;;;;6.30;1.98;;;26.80;66.90;;;;;;6154404;23;20051;-68
2023/12/05 01:24:15;;;;;;;8.30;2.40;;;26.80;66.70;;;;;;6154685;23;20010;-67
2023/12/05 01:26:42;;;;;;;9.77;2.67;;;26.80;67.70;;;;;;6154947;23;20057;-67
2023/12/05 01:29:10;;;;;;;6.60;1.90;;;26.80;67.10;;;;;;6154495;23;20033;-67
2023/12/05 01:31:37;;;;;;;8.55;2.17;;;26.80;66.30;;;;;;6154548;23;20064;-68
2023/12/05 01:34:04;;;;;;;7.20;2.65;;;26.80;65.70;;;;;;6154307;23;20117;-67
2023/12/05 01:36:31;;;;;;;9.02;2.30;;;26.80;67.40;;;;;;6154709;23;20002;-67
2023/12/05 01:38:59;;;;;;;13.20;2.33;;;26.80;65.30;;;;;;6130519;23;20028;-67
2023/12/05 01:41:26;;;;;;;8.65;2.15;;;26.80;65.00;;;;;;6156120;23;20029;-67
2023/12/05 01:43:53;;;;;;;17.95;2.72;;;26.80;65.80;;;;;;6155912;23;20069;-68
2023/12/05 01:46:20;;;;;;;8.25;1.90;;;26.80;67.30;;;;;;6156421;23;20365;-67
2023/12/05 01:48:48;;;;;;;7.95;2.53;;;26.80;66.70;;;;;;6106301;23;20008;-67
2023/12/05 01:51:15;;;;;;;5.55;2.13;;;26.80;67.40;;;;;;6105929;23;20002;-67
2023/12/05 01:53:42;;;;;;;10.45;2.00;;;26.80;66.90;;;;;;6156225;23;20065;-67
2023/12/05 01:56:10;;;;;;;6.00;1.90;;;26.80;66.30;;;;;;6101110;23;20014;-67
2023/12/05 01:58:38;;;;;;;10.40;2.65;;;26.80;65.50;;;;;;6124847;23;20082;-68
2023/12/05 02:01:05;;;;;;;11.77;2.38;;;26.80;65.70;;;;;;6126596;23;20485;-68
2023/12/05 02:03:33;;;;;;;8.65;2.83;;;26.80;65.90;;;;;;6126603;23;20010;-68
2023/12/05 02:06:00;;;;;;;6.45;2.28;;;26.90;65.20;;;;;;6125273;23;20006;-68
2023/12/05 02:08:28;;;;;;;11.90;3.05;;;26.90;66.10;;;;;;6126509;23;20009;-68
2023/12/05 02:10:55;;;;;;;11.77;2.67;;;26.90;66.20;;;;;;6124745;23;20010;-68
2023/12/05 02:13:22;;;;;;;6.45;1.92;;;26.90;66.40;;;;;;6126524;23;20010;-68
2023/12/05 02:15:51;;;;;;;12.93;2.30;;;26.90;66.50;;;;;;6126304;23;20012;-67
2023/12/05 02:18:21;;;;;;;7.78;2.42;;;26.90;65.40;;;;;;6126621;23;20006;-68
2023/12/05 02:20:51;;;;;;;5.60;1.80;;;27.00;65.60;;;;;;6126778;23;20006;-68
2023/12/05 02:23:37;;;;;;;8.77;2.20;;;27.00;65.10;;;;;;6126356;23;20013;-68
2023/12/05 02:26:23;;;;;;;11.10;2.80;;;27.10;64.50;;;;;;6126375;23;20056;-68
2023/12/05 02:28:51;;;;;;;9.25;2.72;;;27.10;65.80;;;;;;6125149;23;20013;-67
2023/12/05 02:31:18;;;;;;;7.70;1.92;;;27.10;64.20;;;;;;6126479;23;20006;-68
2023/12/05 02:33:45;;;;;;;8.35;2.28;;;27.20;64.20;;;;;;6126199;23;20006;-67
2023/12/05 02:36:24;;;;;;;6.15;1.73;;;27.20;64.30;;;;;;6124823;23;19998;-68
2023/12/05 02:38:52;;;;;;;8.30;2.47;;;27.20;65.00;;;;;;6126634;23;20064;-68
2023/12/05 02:41:22;;;;;;;9.13;2.42;;;27.20;66.60;;;;;;6126101;23;20010;-68
2023/12/05 02:44:25;;;;;;;7.88;2.05;;;27.30;65.60;;;;;;6126485;23;20021;-68
2023/12/05 02:46:52;;;;;;;8.25;2.50;;;27.30;64.40;;;;;;6065599;23;20097;-68
2023/12/05 02:49:20;;;;;;;4.97;1.80;;;27.20;64.80;;;;;;6100290;23;20108;-68
2023/12/05 02:51:47;;;;;;;5.32;1.98;;;27.30;65.80;;;;;;6125975;23;19998;-68
2023/12/05 02:54:14;;;;;;;12.50;2.38;;;27.20;64.00;;;;;;6126193;23;20026;-68
2023/12/05 02:56:41;;;;;;;10.52;2.70;;;27.30;65.30;;;;;;6124544;23;20026;-68
2023/12/05 02:59:09;;;;;;;10.30;2.15;;;27.30;64.00;;;;;;6124508;23;20013;-68
2023/12/05 03:01:39;;;;;;;8.75;2.22;;;27.20;64.80;;;;;;6125906;23;20021;-68
2023/12/05 03:04:07;;;;;;;8.73;2.28;;;27.20;64.10;;;;;;6124658;23;20041;-68
2023/12/05 03:06:34;;;;;;;7.15;2.20;;;27.30;63.50;;;;;;6125713;23;20013;-68
2023/12/05 03:09:03;;;;;;;11.98;2.17;;;27.30;64.70;;;;;;6126151;23;20010;-68
2023/12/05 03:11:31;;;;;;;7.05;2.15;;;27.30;64.10;;;;;;6125840;23;20002;-68
2023/12/05 03:13:59;;;;;;;6.13;2.30;;;27.30;65.40;;;;;;6100648;23;20089;-68
2023/12/05 03:16:26;;;;;;;9.00;2.50;;;27.30;63.80;;;;;;6124313;23;20502;-68
2023/12/05 03:18:54;;;;;;;19.20;2.38;;;27.30;64.80;;;;;;6125978;23;20009;-67
2023/12/05 03:21:21;;;;;;;8.48;2.85;;;27.30;64.40;;;;;;6126098;23;20330;-68
2023/12/05 03:23:48;;;;;;;11.80;2.75;;;27.20;65.00;;;;;;6125729;23;20045;-67
2023/12/05 03:26:22;;;;;;;9.60;2.40;;;27.20;64.90;;;;;;6125960;23;20024;-68
2023/12/05 03:28:50;;;;;;;10.65;2.35;;;27.20;64.40;;;;;;6125793;23;20048;-67
2023/12/05 03:31:17;;;;;;;7.30;2.63;;;27.10;64.20;;;;;;6125883;23;20046;-67
2023/12/05 03:33:45;;;;;;;12.48;2.60;;;27.10;64.30;;;;;;6125905;23;20025;-67
2023/12/05 03:36:12;;;;;;;9.60;2.15;;;27.20;64.30;;;;;;6125951;23;20013;-68
2023/12/05 03:38:40;;;;;;;12.43;2.20;;;27.20;65.00;;;;;;6100148;23;20371;-68
2023/12/05 03:41:08;;;;;;;10.90;3.13;;;27.20;64.80;;;;;;6125571;23;20338;-68
2023/12/05 03:43:35;;;;;;;9.88;2.17;;;27.20;66.40;;;;;;6125445;23;20080;-68
2023/12/05 03:46:02;;;;;;;11.25;2.40;;;27.20;65.10;;;;;;6125528;23;20010;-68
2023/12/05 03:48:30;;;;;;;8.40;2.33;;;27.20;63.90;;;;;;6125913;23;20056;-67
2023/12/05 03:50:57;;;;;;;10.75;2.60;;;27.10;63.90;;;;;;6125584;23;20006;-68
2023/12/05 03:53:24;;;;;;;8.40;1.95;;;27.20;64.70;;;;;;6125661;23;20002;-68
2023/12/05 03:55:51;;;;;;;10.23;2.47;;;27.20;64.70;;;;;;6138592;23;20089;-68
2023/12/05 03:58:18;;;;;;;6.72;2.20;;;27.20;65.00;;;;;;6155136;23;20005;-68
2023/12/05 04:00:46;;;;;;;9.88;2.70;;;27.20;65.20;;;;;;6154622;23;20060;-68
2023/12/05 04:03:13;;;;;;;9.32;3.08;;;27.20;65.80;;;;;;6154954;23;20037;-68
2023/12/05 04:05:41;;;;;;;12.05;2.97;;;27.10;65.10;;;;;;6154920;23;20001;-68
2023/12/05 04:08:08;;;;;;;11.27;2.53;;;27.20;65.80;;;;;;6155075;23;20005;-68
2023/12/05 04:10:35;;;;;;;13.77;3.00;;;27.20;65.50;;;;;;6154847;23;20009;-68
2023/12/05 04:13:02;;;;;;;11.68;2.50;;;27.20;64.90;;;;;;6153515;23;20017;-67
2023/12/05 04:15:30;;;;;;;13.38;2.60;;;27.20;66.90;;;;;;6154693;23;20029;-72
2023/12/05 04:17:57;;;;;;;14.25;3.00;;;27.20;66.60;;;;;;6128924;23;20001;-71
2023/12/05 04:20:24;;;;;;;12.13;2.75;;;27.20;66.20;;;;;;6155203;23;20067;-69
2023/12/05 04:22:51;;;;;;;12.02;3.15;;;27.20;67.20;;;;;;6154192;23;20029;-69
2023/12/05 04:25:19;;;;;;;13.27;3.22;;;27.10;67.20;;;;;;6152404;23;20080;-69
2023/12/05 04:27:46;;;;;;;6.10;1.90;;;27.10;66.10;;;;;;6150750;23;20006;-67
2023/12/05 04:30:14;;;;;;;14.30;3.20;;;27.10;65.70;;;;;;6150575;23;20006;-67
2023/12/05 04:32:41;;;;;;;11.85;2.35;;;27.10;66.90;;;;;;6151550;23;20425;-67
2023/12/05 04:35:09;;;;;;;13.30;2.00;;;27.10;66.90;;;;;;6151471;23;20001;-67
2023/12/05 04:37:36;;;;;;;17.00;2.53;;;27.10;66.60;;;;;;6151900;23;20029;-67
2023/12/05 04:40:04;;;;;;;6.88;2.42;;;27.10;67.00;;;;;;6151241;23;20066;-66
2023/12/05 04:42:31;;;;;;;8.98;2.30;;;27.10;66.30;;;;;;6125647;23;21257;-66
2023/12/05 04:44:58;;;;;;;11.75;2.58;;;27.10;66.30;;;;;;6151171;23;20016;-67
2023/12/05 04:47:25;;;;;;;5.60;2.03;;;27.10;66.50;;;;;;6125457;23;20005;-68
2023/12/05 04:49:53;;;;;;;8.45;2.75;;;27.10;66.60;;;;;;6152120;23;20009;-68
2023/12/05 04:52:20;;;;;;;8.68;2.35;;;27.10;67.00;;;;;;6151239;23;20101;-67
2023/12/05 04:54:47;;;;;;;12.60;2.78;;;27.10;66.10;;;;;;6151508;23;20009;-67
2023/12/05 04:57:14;;;;;;;11.02;2.90;;;27.10;67.40;;;;;;6150290;23;20053;-67
2023/12/05 04:59:42;;;;;;;9.95;2.42;;;27.10;66.20;;;;;;6150114;23;20013;-68
2023/12/05 05:02:11;;;;;;;11.20;2.03;;;27.10;66.70;;;;;;6150138;23;20012;-67
2023/12/05 05:04:38;;;;;;;15.00;2.28;;;27.10;66.40;;;;;;6149283;23;20020;-67
2023/12/05 05:07:12;;;;;;;10.02;2.35;;;27.10;67.40;;;;;;6147905;23;20012;-67
2023/12/05 05:09:41;;;;;;;8.07;2.65;;;27.10;67.20;;;;;;6150380;23;20012;-67
2023/12/05 09:28:06;;;;;;;11.82;3.03;;;25.50;68.70;;;;;;6012572;23;2527157;-67
2023/12/05 09:30:33;;;;;;;13.73;3.58;;;25.50;69.50;;;;;;6123298;23;20036;-68
2023/12/05 09:33:01;;;;;;;14.65;3.00;;;25.50;69.20;;;;;;6123364;23;20124;-69
2023/12/05 09:35:29;;;;;;;8.23;2.67;;;25.50;69.30;;;;;;6122930;23;20005;-67
2023/12/05 09:37:56;;;;;;;10.85;2.70;;;25.50;69.20;;;;;;6122631;23;20006;-69
2023/12/05 09:40:23;;;;;;;13.73;3.22;;;25.40;70.00;;;;;;6096546;23;20405;-68
2023/12/05 09:42:51;;;;;;;12.43;3.47;;;25.40;69.70;;;;;;6122632;23;20006;-68
2023/12/05 09:45:18;;;;;;;8.75;3.00;;;25.40;69.80;;;;;;6097317;23;20030;-67
2023/12/05 09:47:48;;;;;;;11.13;2.90;;;25.30;69.90;;;;;;6097376;23;20422;-67
2023/12/05 09:50:15;;;;;;;10.52;2.88;;;25.30;69.90;;;;;;6123017;23;20057;-67
2023/12/05 09:52:43;;;;;;;12.68;3.45;;;25.40;70.10;;;;;;6073049;23;20009;-68
2023/12/05 09:55:10;;;;;;;10.13;3.10;;;25.30;70.10;;;;;;6097559;23;20073;-68
2023/12/05 09:57:38;;;;;;;11.88;3.15;;;25.30;70.30;;;;;;6096722;23;20303;-69
2023/12/05 10:00:06;;;;;;;10.10;3.10;;;25.30;70.20;;;;;;6097337;23;20002;-68
2023/12/05 10:02:33;;;;;;;9.77;2.67;;;25.30;70.60;;;;;;6096327;23;20009;-69
2023/12/05 10:05:00;;;;;;;13.07;3.00;;;25.30;70.50;;;;;;6096593;23;20022;-68
2023/12/05 10:07:28;;;;;;;13.55;3.17;;;25.30;70.60;;;;;;6094595;23;20006;-68
2023/12/05 10:09:55;;;;;;;13.27;3.65;;;25.30;70.70;;;;;;6123323;23;20302;-69
2023/12/05 10:12:23;;;;;;;11.55;3.60;;;25.30;70.70;;;;;;6073189;23;20014;-69
2023/12/05 10:14:50;;;;;;;14.35;3.15;;;25.30;70.70;;;;;;6122854;23;20076;-68
2023/12/05 10:17:18;;;;;;;9.63;3.22;;;25.30;71.30;;;;;;6073475;23;20010;-67
2023/12/05 10:19:45;;;;;;;12.45;3.63;;;25.30;71.30;;;;;;6122663;23;20077;-67
2023/12/05 10:22:12;;;;;;;15.10;3.65;;;25.30;71.60;;;;;;6122783;23;20099;-69
2023/12/05 10:24:43;;;;;;;14.52;3.72;;;25.20;71.70;;;;;;6122984;23;20009;-68
2023/12/05 11:05:53;;;;;;;12.30;3.70;;;25.20;73.00;;;;;;6069994;23;20030;-67
2023/12/05 11:08:20;;;;;;;13.98;4.30;;;25.20;73.00;;;;;;6067564;23;20039;-67
2023/12/05 11:10:48;;;;;;;17.00;4.10;;;25.20;72.90;;;;;;6067016;23;20002;-67
2023/12/05 11:13:15;;;;;;;13.60;4.50;;;25.20;72.90;;;;;;6066967;23;20010;-67
2023/12/05 11:15:42;;;;;;;16.02;4.25;;;25.20;73.10;;;;;;6042300;23;20003;-67
2023/12/05 11:18:31;;;;;;;11.85;4.15;;;25.20;73.00;;;;;;6067414;23;20086;-67
2023/12/05 11:21:02;;;;;;;18.63;3.88;;;25.20;73.20;;;;;;6042328;23;20022;-67
2023/12/05 11:23:50;;;;;;;16.40;4.88;;;25.20;73.20;;;;;;6066541;23;20009;-67
2023/12/05 11:27:01;;;;;;;19.55;4.75;;;25.20;73.10;;;;;;6067301;23;20058;-67
2023/12/05 11:29:59;;;;;;;20.17;4.85;;;25.20;73.00;;;;;;6007412;23;20017;-67
2023/12/05 11:32:48;;;;;;;13.90;4.00;;;25.20;73.00;;;;;;6067437;23;20387;-67
2023/12/05 11:35:51;;;;;;;14.93;4.18;;;25.30;72.90;;;;;;6045861;23;20011;-67
2023/12/05 11:38:19;;;;;;;15.52;4.15;;;25.20;73.20;;;;;;6035510;23;20038;-67
2023/12/05 11:41:20;;;;;;;14.35;4.38;;;25.20;73.20;;;;;;6018836;23;20006;-67
2023/12/05 11:44:17;;;;;;;23.83;5.25;;;25.20;73.30;;;;;;6022870;23;20462;-67
2023/12/05 11:46:44;;;;;;;33.92;6.93;;;25.10;73.40;;;;;;6042913;23;20452;-67
2023/12/05 11:49:13;;;;;;;14.35;3.97;;;25.10;73.60;;;;;;6041649;23;20031;-67
2023/12/05 11:51:40;;;;;;;18.25;4.35;;;25.10;73.40;;;;;;6041518;23;20339;-67
2023/12/05 11:54:07;;;;;;;9.27;3.95;;;25.10;73.40;;;;;;6067091;23;20007;-67
2023/12/05 11:56:35;;;;;;;11.35;3.83;;;25.10;73.40;;;;;;6067100;23;20003;-67
2023/12/05 11:59:17;;;;;;;16.02;4.03;;;25.10;73.50;;;;;;6066934;23;20007;-68
2023/12/05 12:01:45;;;;;;;10.35;3.55;;;25.10;73.60;;;;;;6067039;23;20030;-67
2023/12/05 12:04:22;;;;;;;13.63;3.78;;;25.10;73.70;;;;;;6072027;23;20437;-67
2023/12/05 12:06:50;;;;;;;11.70;3.67;;;25.10;73.80;;;;;;6095050;23;20326;-68
2023/12/05 12:09:17;;;;;;;12.35;3.38;;;25.00;73.80;;;;;;6070625;23;20010;-67
2023/12/05 12:11:45;;;;;;;14.88;3.78;;;25.00;73.90;;;;;;6095821;23;20485;-67
2023/12/05 12:14:21;;;;;;;9.32;3.70;;;25.00;73.90;;;;;;6095734;23;19998;-69
2023/12/05 12:16:50;;;;;;;13.75;4.15;;;25.00;73.90;;;;;;6095321;23;20006;-67
2023/12/05 12:19:17;;;;;;;13.27;4.05;;;25.00;74.00;;;;;;6071295;23;19999;-67
2023/12/05 12:21:45;;;;;;;10.68;3.40;;;25.00;74.10;;;;;;6095616;23;20070;-67
2023/12/05 12:24:25;;;;;;;8.07;3.30;;;25.00;74.20;;;;;;6096023;23;20015;-67
2023/12/05 12:26:55;;;;;;;12.20;3.50;;;25.00;74.20;;;;;;6095560;23;20315;-67
2023/12/05 12:29:22;;;;;;;10.73;3.53;;;25.00;74.10;;;;;;6095907;23;20006;-67
2023/12/05 12:31:52;;;;;;;14.07;3.88;;;25.00;74.10;;;;;;6095694;23;20006;-67
2023/12/05 12:34:24;;;;;;;16.50;4.57;;;25.00;74.20;;;;;;6071518;23;20002;-67
2023/12/05 12:36:51;;;;;;;8.98;3.58;;;25.00;74.00;;;;;;6095615;23;20009;-68
2023/12/05 12:39:19;;;;;;;16.95;4.18;;;25.00;74.00;;;;;;6070421;23;20011;-68
2023/12/05 12:41:47;;;;;;;11.45;3.88;;;25.00;74.00;;;;;;6095568;23;20029;-67
2023/12/05 12:44:17;;;;;;;13.55;3.80;;;25.00;74.10;;;;;;6070723;23;20021;-67
2023/12/05 12:46:45;;;;;;;16.55;3.90;;;25.00;74.20;;;;;;6096304;23;20029;-68
2023/12/05 12:49:12;;;;;;;22.17;4.18;;;25.00;74.40;;;;;;6070146;23;20037;-67
2023/12/05 12:51:40;;;;;;;10.48;4.03;;;24.90;74.50;;;;;;6095972;23;20007;-67
2023/12/05 12:54:09;;;;;;;13.52;4.40;;;24.90;74.80;;;;;;6095649;23;20366;-67
2023/12/05 12:56:38;;;;;;;10.43;4.13;;;24.90;74.80;;;;;;6095801;23;20058;-68
2023/12/05 12:59:06;;;;;;;;;;;24.90;74.80;;;;;;6096128;23;20330;-67
2023/12/05 13:01:38;;;;;;;13.07;3.53;;;24.90;74.60;;;;;;6095913;23;19912;-67
2023/12/05 13:21:37;;;;;;;14.60;4.35;;;24.80;74.60;;;;;;6092926;23;20127;-67
2023/12/05 13:24:04;;;;;;;9.50;3.42;;;24.80;74.90;;;;;;6095398;23;20031;-67
2023/12/05 13:26:31;;;;;;;18.42;3.95;;;24.80;75.10;;;;;;6070184;23;20006;-67
2023/12/05 13:28:59;;;;;;;14.20;3.40;;;24.80;75.20;;;;;;6070203;23;20028;-67
2023/12/05 13:31:26;;;;;;;14.93;3.78;;;24.80;75.10;;;;;;6095449;23;20002;-67
2023/12/05 13:33:54;;;;;;;11.70;3.75;;;24.70;75.10;;;;;;6095668;23;20034;-67
2023/12/05 13:36:22;;;;;;;12.18;3.60;;;24.70;75.20;;;;;;6071704;23;20010;-67
2023/12/05 13:38:52;;;;;;;11.98;3.50;;;24.70;75.30;;;;;;6072673;23;20026;-67
2023/12/05 13:41:19;;;;;;;;;;;24.70;75.70;;;;;;6049783;23;20017;-67
2023/12/05 13:43:46;;;;;;;14.57;3.85;;;24.70;75.70;;;;;;6097325;23;19937;-67
2023/12/05 13:46:14;;;;;;;12.73;3.42;;;24.60;75.70;;;;;;6097309;23;20014;-67
2023/12/05 13:48:42;;;;;;;10.38;3.97;;;24.60;75.60;;;;;;6072006;23;20038;-67
2023/12/05 13:51:10;;;;;;;9.82;3.80;;;24.60;75.70;;;;;;6097951;23;20452;-67
2023/12/05 13:53:37;;;;;;;11.13;3.38;;;24.60;75.80;;;;;;6097511;23;20370;-67
2023/12/05 13:56:05;;;;;;;12.57;3.65;;;24.60;75.90;;;;;;6097062;23;19999;-66
2023/12/05 13:58:33;;;;;;;8.82;3.20;;;24.60;75.90;;;;;;6096902;23;20006;-67
2023/12/05 14:01:00;;;;;;;18.50;3.55;;;24.60;75.90;;;;;;6097318;23;20085;-67
2023/12/05 14:03:27;;;;;;;9.50;3.67;;;24.60;76.20;;;;;;6096966;23;20050;-67
2023/12/05 14:05:54;;;;;;;11.70;3.55;;;24.60;76.20;;;;;;6097289;23;20370;-67
2023/12/05 14:08:22;;;;;;;16.15;4.13;;;24.60;76.30;;;;;;6096942;23;20077;-67
2023/12/05 14:10:50;;;;;;;13.27;4.50;;;24.60;76.40;;;;;;6097044;23;20493;-67
2023/12/05 14:13:17;;;;;;;16.20;3.80;;;24.60;76.50;;;;;;6096673;23;20430;-67
2023/12/05 14:15:44;;;;;;;14.65;4.03;;;24.60;76.70;;;;;;6096845;23;20169;-67
2023/12/05 14:18:11;;;;;;;11.63;3.40;;;24.60;76.80;;;;;;6096848;23;20127;-68
2023/12/05 14:20:39;;;;;;;10.38;3.50;;;24.60;76.70;;;;;;6096438;23;20015;-67
2023/12/05 14:23:06;;;;;;;15.27;4.03;;;24.50;76.70;;;;;;6097073;23;20348;-68
2023/12/05 14:25:33;;;;;;;13.88;3.78;;;24.50;76.70;;;;;;6097019;23;20018;-68
2023/12/05 14:28:01;;;;;;;13.45;3.95;;;24.50;77.00;;;;;;6096879;23;20008;-68
2023/12/05 14:30:28;;;;;;;7.82;3.13;;;24.40;77.10;;;;;;6097105;23;20018;-68
2023/12/05 14:32:55;;;;;;;14.25;4.03;;;24.40;77.00;;;;;;6071466;23;20062;-68
2023/12/05 14:35:23;;;;;;;12.18;3.92;;;24.40;76.90;;;;;;6096911;23;20002;-68
2023/12/05 14:37:50;;;;;;;15.68;4.25;;;24.40;76.70;;;;;;6096674;23;20422;-67
2023/12/05 14:40:18;;;;;;;11.15;3.60;;;24.30;76.80;;;;;;6071184;23;20338;-67
2023/12/05 14:42:45;;;;;;;14.60;3.80;;;24.40;76.80;;;;;;6096431;23;20050;-68
2023/12/05 14:45:12;;;;;;;11.52;3.65;;;24.30;76.90;;;;;;6095789;23;20441;-67
2023/12/05 14:47:40;;;;;;;10.75;3.70;;;24.30;76.90;;;;;;6096801;23;20027;-67
2023/12/05 14:50:07;;;;;;;9.52;3.65;;;24.30;77.00;;;;;;6095910;23;20018;-68
2023/12/05 14:52:34;;;;;;;14.90;4.30;;;24.30;77.10;;;;;;6096547;23;20013;-68
2023/12/05 14:55:02;;;;;;;11.75;3.47;;;24.30;77.10;;;;;;6096571;23;20553;-67
2023/12/05 14:57:29;;;;;;;14.50;3.72;;;24.30;77.10;;;;;;6095290;23;20034;-68
2023/12/05 14:59:56;;;;;;;20.20;3.47;;;24.30;77.20;;;;;;6096531;23;20003;-68
2023/12/05 15:02:23;;;;;;;12.82;4.20;;;24.30;77.10;;;;;;6096781;23;20101;-68
2023/12/05 15:04:51;;;;;;;15.63;3.78;;;24.30;77.10;;;;;;6095920;23;20045;-68
2023/12/05 15:07:18;;;;;;;9.63;3.53;;;24.30;77.20;;;;;;6096340;23;20300;-68
2023/12/05 15:09:45;;;;;;;8.43;3.33;;;24.30;77.40;;;;;;6096759;23;20014;-68
2023/12/05 15:12:12;;;;;;;12.52;3.35;;;24.30;77.40;;;;;;6096483;23;20010;-68
2023/12/05 15:14:41;;;;;;;11.85;3.67;;;24.30;77.50;;;;;;6096979;23;20321;-68
2023/12/05 15:17:09;;;;;;;8.00;3.13;;;24.30;77.50;;;;;;6096219;23;20013;-68
2023/12/05 15:19:37;;;;;;;9.15;3.47;;;24.30;77.00;;;;;;6096864;23;20429;-68
2023/12/05 15:22:04;;;;;;;14.05;3.55;;;24.30;77.10;;;;;;6096312;23;20457;-68
2023/12/05 15:24:31;;;;;;;17.08;3.53;;;24.30;77.20;;;;;;6096519;23;20022;-68
2023/12/05 15:26:59;;;;;;;11.52;4.03;;;24.30;77.50;;;;;;6070343;23;20029;-68
2023/12/05 15:29:26;;;;;;;8.18;3.40;;;24.20;77.70;;;;;;6096529;23;20039;-68
2023/12/05 15:31:55;;;;;;;10.25;3.55;;;24.20;77.70;;;;;;6096930;23;20003;-68
2023/12/05 15:34:22;;;;;;;9.25;3.03;;;24.20;77.70;;;;;;6096727;23;20054;-68
2023/12/05 15:36:50;;;;;;;8.95;3.00;;;24.20;77.70;;;;;;6095935;23;20030;-68
2023/12/05 15:39:17;;;;;;;11.20;3.40;;;24.20;77.90;;;;;;6046832;23;20020;-68
2023/12/05 15:41:44;;;;;;;12.05;3.17;;;24.20;77.80;;;;;;6096131;23;20003;-68
2023/12/05 15:44:12;;;;;;;8.63;3.13;;;24.20;77.40;;;;;;6096174;23;20349;-69
2023/12/05 15:46:39;;;;;;;9.07;2.90;;;24.20;77.00;;;;;;6095956;23;20002;-68
2023/12/05 15:49:06;;;;;;;11.48;3.15;;;24.30;76.40;;;;;;6070840;23;20006;-68
2023/12/05 15:51:37;;;;;;;14.32;2.90;;;24.20;76.30;;;;;;6096105;23;20433;-68
2023/12/05 15:54:04;;;;;;;10.38;3.35;;;24.30;76.50;;;;;;6070906;23;20029;-68
2023/12/05 15:56:31;;;;;;;11.23;3.40;;;24.30;76.40;;;;;;6096063;23;20007;-68
2023/12/05 15:58:59;;;;;;;6.80;2.92;;;24.30;76.80;;;;;;6095681;23;19999;-68
2023/12/05 16:01:26;;;;;;;11.93;3.42;;;24.30;77.20;;;;;;6095765;23;20026;-68
2023/12/05 16:03:53;;;;;;;10.35;3.47;;;24.30;77.00;;;;;;6095957;23;20025;-68
2023/12/05 16:06:20;;;;;;;8.68;3.35;;;24.30;77.10;;;;;;6095600;23;20073;-68
2023/12/05 16:08:48;;;;;;;12.93;3.85;;;24.30;77.40;;;;;;6095940;23;20010;-68
2023/12/05 16:11:16;;;;;;;9.98;3.33;;;24.20;77.80;;;;;;6046210;23;20010;-68
2023/12/05 16:13:44;;;;;;;14.88;3.88;;;24.20;77.80;;;;;;6096164;23;20114;-68
2023/12/05 16:16:11;;;;;;;5.35;3.40;;;24.00;80.20;;;;;;6070565;23;20033;-68
2023/12/05 16:18:38;;;;;;;11.38;3.60;;;23.90;80.60;;;;;;6095687;23;20013;-68
2023/12/05 16:21:06;;;;;;;8.63;3.00;;;23.80;77.10;;;;;;6095795;23;20022;-68
2023/12/05 16:23:36;;;;;;;27.85;4.70;;;24.10;73.00;;;;;;6095960;23;20010;-68
2023/12/05 16:26:03;;;;;;;27.70;5.72;;;24.30;76.90;;;;;;6096023;23;20013;-68
2023/12/05 16:28:31;;;;;;;28.70;5.53;;;24.20;80.50;;;;;;6095556;23;20037;-67
2023/12/05 16:30:58;;;;;;;31.15;6.15;;;23.90;82.20;;;;;;6095860;23;20014;-67
2023/12/05 16:33:25;;;;;;;25.27;5.80;;;23.70;83.40;;;;;;6095937;23;20014;-68
2023/12/05 16:35:52;;;;;;;34.45;7.15;;;23.50;84.10;;;;;;6096151;23;20032;-68
2023/12/05 16:38:21;;;;;;;33.47;6.88;;;23.30;85.30;;;;;;6095412;23;20039;-67
2023/12/05 16:40:48;;;;;;;33.95;7.13;;;23.30;86.40;;;;;;6096172;23;20054;-68
2023/12/05 16:43:15;;;;;;;34.95;7.10;;;23.00;86.90;;;;;;6095727;23;20002;-67
2023/12/05 16:45:43;;;;;;;31.88;8.05;;;23.00;87.10;;;;;;6096345;23;20463;-68
2023/12/05 16:48:10;;;;;;;37.35;8.00;;;22.90;87.50;;;;;;6095735;23;20077;-67
2023/12/05 16:50:37;;;;;;;28.08;6.22;;;22.80;87.70;;;;;;6095642;23;20014;-67
2023/12/05 16:53:06;;;;;;;29.70;6.95;;;22.80;88.00;;;;;;6096026;23;20493;-67
2023/12/05 16:55:33;;;;;;;25.85;6.35;;;22.80;88.10;;;;;;6095963;23;20104;-67
2023/12/05 16:58:00;;;;;;;27.20;6.25;;;22.80;87.90;;;;;;6070344;23;20018;-68
2023/12/05 17:00:28;;;;;;;31.65;7.57;;;22.70;88.00;;;;;;6095527;23;20253;-68
2023/12/05 17:02:55;;;;;;;21.15;6.22;;;22.60;87.90;;;;;;6095600;23;20006;-67
2023/12/05 17:05:22;;;;;;;29.77;6.03;;;22.60;87.70;;;;;;6095533;23;20442;-68
2023/12/05 17:07:49;;;;;;;26.27;5.75;;;22.50;87.50;;;;;;6096461;23;20003;-68
2023/12/05 17:10:17;;;;;;;23.25;5.95;;;22.60;87.10;;;;;;6071971;23;20070;-67
2023/12/05 17:12:44;;;;;;;25.85;5.85;;;22.60;86.80;;;;;;6098248;23;20138;-68
2023/12/05 17:15:11;;;;;;;29.08;6.20;;;22.60;86.50;;;;;;6097940;23;20003;-68
2023/12/05 17:17:39;;;;;;;24.50;5.22;;;22.60;86.40;;;;;;6097451;23;20050;-68
2023/12/05 17:20:08;;;;;;;20.40;5.72;;;22.60;85.90;;;;;;6097462;23;20005;-67
2023/12/05 17:22:35;;;;;;;29.13;6.40;;;22.50;85.60;;;;;;6097672;23;20014;-68
2023/12/05 17:25:03;;;;;;;26.27;5.70;;;22.50;85.50;;;;;;6097080;23;20026;-69
2023/12/05 17:27:30;;;;;;;20.80;5.40;;;22.50;85.20;;;;;;6097231;23;20034;-68
2023/12/05 17:29:57;;;;;;;21.77;5.03;;;22.50;85.10;;;;;;6097313;23;20010;-69
2023/12/05 17:32:27;;;;;;;24.13;5.07;;;22.50;85.10;;;;;;6097198;23;20009;-68
2023/12/05 17:34:58;;;;;;;25.55;5.55;;;22.50;84.70;;;;;;6097377;23;20006;-69
2023/12/05 17:37:31;;;;;;;21.65;5.28;;;22.50;84.60;;;;;;6072621;23;20456;-68
2023/12/05 17:39:58;;;;;;;21.48;5.03;;;22.50;84.30;;;;;;6097659;23;20021;-68
2023/12/05 17:42:26;;;;;;;21.45;4.32;;;22.40;83.70;;;;;;6096780;23;20002;-68
2023/12/05 17:44:53;;;;;;;18.70;4.80;;;22.40;83.40;;;;;;6096813;23;20449;-67
2023/12/05 17:47:21;;;;;;;21.98;4.93;;;22.50;82.30;;;;;;6070428;23;20005;-67
2023/12/05 17:49:49;;;;;;;21.30;4.13;;;22.40;81.50;;;;;;6048512;23;20003;-68
2023/12/05 17:52:16;;;;;;;27.52;5.07;;;22.40;80.60;;;;;;6097000;23;20417;-68
2023/12/05 17:54:43;;;;;;;19.77;4.72;;;22.40;79.60;;;;;;6096912;23;20089;-68
2023/12/05 17:57:10;;;;;;;18.00;3.92;;;22.50;79.40;;;;;;6096718;23;20003;-68
2023/12/05 17:59:38;;;;;;;19.15;4.07;;;22.40;78.70;;;;;;6096476;23;20009;-67
2023/12/05 18:02:06;;;;;;;25.20;3.65;;;22.40;77.10;;;;;;6096755;23;20020;-68
2023/12/05 18:04:33;;;;;;;16.40;3.17;;;22.40;75.90;;;;;;6096967;23;20090;-68
2023/12/05 18:07:00;;;;;;;17.17;3.08;;;22.40;73.10;;;;;;6097057;23;20002;-68
2023/12/05 18:09:28;;;;;;;18.58;3.35;;;22.50;72.60;;;;;;6097353;23;20032;-69
2023/12/05 18:11:55;;;;;;;15.07;3.17;;;22.50;71.20;;;;;;6097065;23;20009;-68
2023/12/05 18:14:22;;;;;;;18.40;3.00;;;22.50;70.50;;;;;;6096976;23;20007;-67
2023/12/05 18:16:50;;;;;;;17.08;2.97;;;22.50;70.70;;;;;;6071574;23;20034;-67
2023/12/05 18:19:17;;;;;;;14.93;3.28;;;22.40;69.70;;;;;;6071685;23;20030;-66
2023/12/05 18:21:44;;;;;;;13.57;2.80;;;22.40;68.90;;;;;;6097069;23;20029;-67
2023/12/05 18:24:12;;;;;;;17.67;3.38;;;22.40;68.10;;;;;;6096734;23;20074;-67
2023/12/05 18:26:39;;;;;;;18.52;3.97;;;22.40;67.80;;;;;;6096647;23;20030;-67
2023/12/05 18:29:06;;;;;;;15.10;3.20;;;22.40;67.20;;;;;;6096802;23;20010;-68
2023/12/05 18:31:33;;;;;;;18.52;2.90;;;22.50;67.70;;;;;;6096550;23;20160;-68
2023/12/05 18:34:01;;;;;;;9.77;2.72;;;22.40;68.40;;;;;;6097027;23;20013;-67
2023/12/05 18:36:30;;;;;;;15.60;2.70;;;22.40;68.70;;;;;;6096825;23;20069;-67
2023/12/05 18:38:57;;;;;;;14.70;3.25;;;22.30;68.90;;;;;;6097129;23;20050;-67
2023/12/05 18:41:24;;;;;;;15.73;3.28;;;22.40;68.90;;;;;;6096807;23;20034;-68
2023/12/05 18:43:52;;;;;;;12.88;3.00;;;22.30;69.30;;;;;;6096981;23;20014;-68
2023/12/05 18:46:19;;;;;;;12.93;2.97;;;22.30;69.60;;;;;;6071538;23;20347;-68
2023/12/05 18:48:46;;;;;;;13.32;2.90;;;22.30;69.90;;;;;;6097474;23;20027;-68
2023/12/05 18:51:13;;;;;;;16.38;3.22;;;22.30;70.60;;;;;;6097023;23;20002;-68
2023/12/05 18:53:41;;;;;;;16.27;2.97;;;22.30;70.90;;;;;;6071696;23;20009;-68